createdAt,value
2022-12-01T00:01:24.992Z,6.40
2022-12-01T00:03:52.252Z,6.40
2022-12-01T00:06:21.322Z,6.40
2022-12-01T00:09:11.452Z,6.30
2022-12-01T00:11:40.092Z,6.40
2022-12-01T00:14:07.034Z,6.30
2022-12-01T00:16:34.777Z,6.40
2022-12-01T00:19:02.201Z,6.40
2022-12-01T00:21:29.513Z,6.40
2022-12-01T00:23:58.769Z,6.30
2022-12-01T00:26:26.971Z,6.30
2022-12-01T00:28:58.826Z,6.30
2022-12-01T00:31:27.560Z,6.30
2022-12-01T00:33:55.271Z,6.30
2022-12-01T00:36:23.068Z,6.40
2022-12-01T00:38:55.760Z,6.30
2022-12-01T00:41:24.725Z,6.30
2022-12-01T00:43:52.184Z,6.30
2022-12-01T00:46:19.357Z,6.30
2022-12-01T00:48:46.713Z,6.40
2022-12-01T00:51:13.673Z,6.30
2022-12-01T00:53:40.666Z,6.30
2022-12-01T00:56:08.177Z,6.30
2022-12-01T00:58:35.508Z,6.20
2022-12-01T01:01:03.309Z,6.30
2022-12-01T01:03:32.496Z,6.30
2022-12-01T01:06:07.272Z,6.30
2022-12-01T01:08:34.432Z,6.30
2022-12-01T01:11:02.182Z,6.20
2022-12-01T01:13:29.838Z,6.30
2022-12-01T01:16:15.763Z,6.20
2022-12-01T01:18:43.547Z,6.20
2022-12-01T01:21:15.559Z,6.30
2022-12-01T01:23:43.015Z,6.20
2022-12-01T01:26:19.125Z,6.20
2022-12-01T01:28:47.670Z,6.30
2022-12-01T01:31:22.041Z,6.20
2022-12-01T01:33:49.627Z,6.30
2022-12-01T01:36:18.328Z,6.20
2022-12-01T01:38:46.454Z,6.20
2022-12-01T01:41:14.491Z,6.20
2022-12-01T01:43:50.731Z,6.20
2022-12-01T01:46:29.085Z,6.20
2022-12-01T01:49:09.777Z,6.20
2022-12-01T01:51:51.180Z,6.20
2022-12-01T01:54:28.432Z,6.10
2022-12-01T01:56:57.649Z,6.10
2022-12-01T01:59:36.278Z,6.10
2022-12-01T02:02:09.031Z,6.10
2022-12-01T02:04:42.344Z,6.10
2022-12-01T02:07:11.812Z,6.10
2022-12-01T02:09:38.933Z,6.10
2022-12-01T02:12:34.989Z,6.00
2022-12-01T02:15:19.356Z,6.10
2022-12-01T02:18:07.776Z,6.10
2022-12-01T02:21:08.861Z,6.10
2022-12-01T02:24:25.461Z,6.10
2022-12-01T02:27:21.620Z,6.20
2022-12-01T02:30:02.438Z,6.20
2022-12-01T02:32:50.537Z,6.10
2022-12-01T02:35:48.519Z,6.10
2022-12-01T02:38:55.634Z,6.10
2022-12-01T02:41:23.125Z,6.10
2022-12-01T02:44:29.553Z,6.20
2022-12-01T02:47:10.657Z,6.10
2022-12-01T02:49:49.802Z,6.20
2022-12-01T02:52:19.021Z,6.10
2022-12-01T02:54:48.352Z,6.20
2022-12-01T02:57:16.912Z,6.10
2022-12-01T02:59:50.955Z,6.10
2022-12-01T03:02:44.246Z,6.10
2022-12-01T03:05:48.953Z,6.10
2022-12-01T03:08:39.474Z,6.10
2022-12-01T03:11:07.002Z,6.20
2022-12-01T03:13:57.434Z,6.20
2022-12-01T03:16:42.662Z,6.20
2022-12-01T03:19:18.425Z,6.20
2022-12-01T03:22:01.465Z,6.20
2022-12-01T03:24:32.992Z,6.20
2022-12-01T03:27:02.752Z,6.20
2022-12-01T03:29:43.973Z,6.30
2022-12-01T03:32:37.145Z,6.20
2022-12-01T03:35:39.238Z,6.20
2022-12-01T03:38:19.515Z,6.20
2022-12-01T03:40:51.068Z,6.20
2022-12-01T03:43:32.905Z,6.20
2022-12-01T03:46:18.504Z,6.10
2022-12-01T03:48:46.639Z,6.20
2022-12-01T03:51:48.565Z,6.10
2022-12-01T03:54:47.285Z,6.10
2022-12-01T03:57:36.043Z,6.20
2022-12-01T04:00:04.517Z,6.20
2022-12-01T04:02:32.353Z,6.20
2022-12-01T04:04:59.631Z,6.20
2022-12-01T04:07:26.852Z,6.20
2022-12-01T04:09:53.819Z,6.20
2022-12-01T04:12:30.110Z,6.10
2022-12-01T04:15:04.328Z,6.10
2022-12-01T04:17:32.026Z,6.20
2022-12-01T04:19:59.144Z,6.20
2022-12-01T04:22:27.334Z,6.10
2022-12-01T04:24:54.654Z,6.20
2022-12-01T04:27:22.074Z,6.10
2022-12-01T04:29:49.572Z,6.10
2022-12-01T04:32:17.313Z,6.20
2022-12-01T04:34:44.851Z,6.20
2022-12-01T04:37:12.961Z,6.10
2022-12-01T04:39:44.496Z,6.20
2022-12-01T04:42:13.335Z,6.20
2022-12-01T04:44:43.957Z,6.10
2022-12-01T04:47:12.568Z,6.20
2022-12-01T04:49:43.602Z,6.20
2022-12-01T04:52:21.098Z,6.10
2022-12-01T04:54:48.081Z,6.20
2022-12-01T04:57:15.226Z,6.20
2022-12-01T04:59:42.413Z,6.20
2022-12-01T05:02:09.615Z,6.20
2022-12-01T05:04:38.823Z,6.20
2022-12-01T05:07:06.065Z,6.20
2022-12-01T05:09:33.211Z,6.20
2022-12-01T05:12:00.305Z,6.20
2022-12-01T05:14:27.620Z,6.10
2022-12-01T05:16:55.223Z,6.10
2022-12-01T05:19:41.182Z,6.10
2022-12-01T05:22:08.412Z,6.10
2022-12-01T05:24:35.520Z,6.10
2022-12-01T05:27:02.719Z,6.10
2022-12-01T05:29:29.923Z,6.10
2022-12-01T05:31:57.310Z,6.20
2022-12-01T05:34:24.448Z,6.10
2022-12-01T05:36:51.524Z,6.10
2022-12-01T05:39:18.909Z,6.10
2022-12-01T05:41:45.855Z,6.10
2022-12-01T05:44:12.955Z,6.10
2022-12-01T05:46:40.343Z,6.10
2022-12-01T05:49:07.898Z,6.10
2022-12-01T05:51:35.110Z,6.10
2022-12-01T05:54:02.928Z,6.10
2022-12-01T05:56:30.209Z,6.10
2022-12-01T05:58:57.464Z,6.10
2022-12-01T06:01:24.553Z,6.10
2022-12-01T06:03:53.577Z,6.10
2022-12-01T06:06:20.952Z,6.20
2022-12-01T06:08:48.236Z,6.20
2022-12-01T06:11:15.212Z,6.10
2022-12-01T06:13:42.443Z,6.10
2022-12-01T06:16:09.683Z,6.10
2022-12-01T06:18:39.006Z,6.10
2022-12-01T06:21:07.119Z,6.10
2022-12-01T06:23:34.910Z,6.10
2022-12-01T06:26:02.324Z,6.10
2022-12-01T06:28:29.721Z,6.10
2022-12-01T06:31:02.762Z,6.10
2022-12-01T06:33:33.878Z,6.10
2022-12-01T06:36:04.600Z,6.10
2022-12-01T06:38:34.277Z,6.10
2022-12-01T06:41:03.715Z,6.10
2022-12-01T06:43:30.984Z,6.10
2022-12-01T06:46:02.038Z,6.10
2022-12-01T06:48:30.126Z,6.10
2022-12-01T06:50:58.743Z,6.10
2022-12-01T06:53:27.416Z,6.10
2022-12-01T06:55:59.953Z,6.10
2022-12-01T06:58:27.136Z,6.10
2022-12-01T07:00:54.755Z,6.10
2022-12-01T07:03:21.806Z,6.10
2022-12-01T07:06:02.669Z,6.10
2022-12-01T07:08:31.813Z,6.10
2022-12-01T07:11:12.482Z,6.10
2022-12-01T07:13:42.269Z,6.10
2022-12-01T07:16:09.897Z,6.10
2022-12-01T07:18:47.428Z,6.10
2022-12-01T07:21:15.968Z,6.10
2022-12-01T07:23:43.365Z,6.10
2022-12-01T07:26:14.522Z,6.10
2022-12-01T07:28:42.376Z,6.10
2022-12-01T07:31:16.521Z,6.10
2022-12-01T07:33:44.039Z,6.10
2022-12-01T07:36:12.411Z,6.10
2022-12-01T07:38:41.856Z,6.10
2022-12-01T07:41:15.365Z,6.10
2022-12-01T07:43:43.409Z,6.10
2022-12-01T07:46:13.649Z,6.10
2022-12-01T07:48:43.035Z,6.20
2022-12-01T07:51:16.616Z,6.10
2022-12-01T07:53:45.662Z,6.20
2022-12-01T07:56:13.421Z,6.20
2022-12-01T07:58:43.679Z,6.20
2022-12-01T08:01:14.987Z,6.30
2022-12-01T08:03:42.579Z,6.20
2022-12-01T08:06:11.168Z,6.20
2022-12-01T08:08:41.166Z,6.20
2022-12-01T08:11:22.251Z,6.30
2022-12-01T08:13:54.069Z,6.30
2022-12-01T08:16:23.543Z,6.30
2022-12-01T08:18:52.766Z,6.20
2022-12-01T08:21:24.871Z,6.20
2022-12-01T08:23:56.149Z,6.20
2022-12-01T08:26:26.148Z,6.30
2022-12-01T08:28:53.428Z,6.30
2022-12-01T08:31:26.175Z,6.40
2022-12-01T08:33:53.891Z,6.30
2022-12-01T08:36:22.619Z,6.40
2022-12-01T08:38:53.523Z,6.40
2022-12-01T08:41:21.465Z,6.40
2022-12-01T08:43:57.914Z,6.40
2022-12-01T08:46:28.286Z,6.40
2022-12-01T08:48:57.506Z,6.40
2022-12-01T08:51:26.408Z,6.50
2022-12-01T08:53:56.313Z,6.50
2022-12-01T08:56:38.160Z,6.50
2022-12-01T08:59:06.203Z,6.40
2022-12-01T09:01:35.131Z,6.50
2022-12-01T09:04:06.789Z,6.50
2022-12-01T09:06:42.933Z,6.60
2022-12-01T09:09:13.741Z,6.60
2022-12-01T09:11:43.696Z,6.60
2022-12-01T09:14:16.385Z,6.70
2022-12-01T09:16:46.397Z,6.60
2022-12-01T09:19:20.580Z,6.70
2022-12-01T09:21:51.181Z,6.80
2022-12-01T09:24:18.165Z,6.70
2022-12-01T09:26:45.377Z,6.80
2022-12-01T09:29:14.806Z,6.80
2022-12-01T09:31:43.175Z,6.80
2022-12-01T09:34:19.426Z,6.90
2022-12-01T09:36:47.775Z,6.90
2022-12-01T09:39:20.122Z,6.70
2022-12-01T09:42:09.051Z,6.80
2022-12-01T09:44:56.213Z,6.70
2022-12-01T09:47:34.838Z,6.80
2022-12-01T09:50:13.342Z,6.80
2022-12-01T09:52:51.442Z,7.00
2022-12-01T09:55:23.183Z,7.00
2022-12-01T09:57:56.697Z,7.00
2022-12-01T10:00:47.252Z,7.00
2022-12-01T10:03:37.023Z,7.00
2022-12-01T10:06:28.045Z,7.10
2022-12-01T10:09:44.426Z,7.00
2022-12-01T10:12:22.644Z,7.00
2022-12-01T10:14:50.574Z,7.10
2022-12-01T10:17:40.102Z,7.20
2022-12-01T10:20:19.547Z,7.30
2022-12-01T10:23:07.513Z,7.30
2022-12-01T10:26:23.710Z,7.30
2022-12-01T10:29:12.715Z,7.30
2022-12-01T10:32:03.146Z,7.40
2022-12-01T10:34:38.459Z,7.30
2022-12-01T10:37:09.290Z,7.40
2022-12-01T10:39:44.611Z,7.30
2022-12-01T10:42:26.966Z,7.40
2022-12-01T10:44:56.566Z,7.30
2022-12-01T10:47:28.876Z,7.20
2022-12-01T10:49:56.384Z,7.20
2022-12-01T10:52:40.885Z,7.40
2022-12-01T10:55:22.916Z,7.50
2022-12-01T10:57:51.152Z,7.40
2022-12-01T11:03:33.482Z,7.50
2022-12-01T11:06:04.508Z,7.40
2022-12-01T11:08:39.046Z,7.50
2022-12-01T11:11:21.443Z,7.60
2022-12-01T11:13:48.864Z,7.50
2022-12-01T11:16:45.643Z,7.70
2022-12-01T11:19:33.092Z,7.60
2022-12-01T11:22:12.887Z,7.70
2022-12-01T11:25:05.215Z,7.80
2022-12-01T11:27:46.075Z,7.80
2022-12-01T11:30:22.763Z,7.70
2022-12-01T11:33:02.275Z,7.70
2022-12-01T11:35:36.308Z,7.70
2022-12-01T11:38:28.814Z,7.40
2022-12-01T11:40:56.553Z,7.50
2022-12-01T11:43:35.997Z,7.50
2022-12-01T11:46:09.136Z,7.50
2022-12-01T11:48:36.823Z,7.50
2022-12-01T11:51:06.069Z,7.50
2022-12-01T11:53:36.923Z,7.70
2022-12-01T11:56:30.306Z,7.90
2022-12-01T11:59:10.353Z,7.80
2022-12-01T12:02:06.119Z,8.00
2022-12-01T12:05:15.377Z,8.00
2022-12-01T12:07:57.496Z,8.00
2022-12-01T12:10:39.879Z,8.00
2022-12-01T12:14:21.246Z,8.00
2022-12-01T12:17:15.235Z,8.00
2022-12-01T12:20:24.246Z,7.90
2022-12-01T12:23:01.802Z,8.00
2022-12-01T12:26:11.599Z,7.90
2022-12-01T12:28:43.980Z,7.80
2022-12-01T12:32:00.434Z,7.80
2022-12-01T12:34:45.443Z,7.80
2022-12-01T12:37:33.700Z,7.80
2022-12-01T12:40:38.375Z,7.80
2022-12-01T12:46:56.435Z,7.90
2022-12-01T12:49:45.392Z,7.90
2022-12-01T12:52:35.110Z,7.90
2022-12-01T12:55:39.165Z,7.80
2022-12-01T12:58:16.767Z,7.60
2022-12-01T13:00:56.184Z,7.70
2022-12-01T13:04:00.206Z,7.70
2022-12-01T13:06:43.590Z,7.50
2022-12-01T13:09:31.806Z,7.60
2022-12-01T13:12:15.772Z,7.60
2022-12-01T13:15:16.058Z,7.70
2022-12-01T13:18:04.093Z,7.80
2022-12-01T13:20:33.720Z,7.70
2022-12-01T13:23:03.085Z,7.70
2022-12-01T13:25:39.537Z,7.70
2022-12-01T13:28:23.898Z,7.70
2022-12-01T13:31:10.219Z,7.60
2022-12-01T13:33:45.667Z,7.40
2022-12-01T13:39:15.117Z,7.40
2022-12-01T13:41:45.369Z,7.30
2022-12-01T13:44:30.469Z,7.30
2022-12-01T13:47:12.638Z,7.20
2022-12-01T13:49:46.602Z,7.30
2022-12-01T13:52:22.507Z,7.30
2022-12-01T13:55:27.935Z,7.40
2022-12-01T13:58:33.715Z,7.40
2022-12-01T14:01:19.900Z,7.50
2022-12-01T14:04:02.722Z,7.50
2022-12-01T14:06:50.276Z,7.60
2022-12-01T14:09:26.884Z,7.50
2022-12-01T14:12:19.925Z,7.50
2022-12-01T14:15:16.206Z,7.50
2022-12-01T14:17:45.992Z,7.40
2022-12-01T14:20:23.019Z,7.30
2022-12-01T14:23:24.328Z,7.40
2022-12-01T14:26:22.920Z,7.40
2022-12-01T14:28:56.003Z,7.40
2022-12-01T14:31:33.429Z,7.40
2022-12-01T14:34:20.624Z,7.30
2022-12-01T14:37:34.043Z,7.30
2022-12-01T14:40:21.364Z,7.40
2022-12-01T14:43:12.281Z,7.30
2022-12-01T14:45:49.756Z,7.30
2022-12-01T14:48:24.442Z,7.30
2022-12-01T14:51:05.778Z,7.30
2022-12-01T14:53:36.431Z,7.30
2022-12-01T14:56:16.273Z,7.30
2022-12-01T14:59:01.984Z,7.30
2022-12-01T15:01:35.197Z,7.30
2022-12-01T15:04:06.490Z,7.30
2022-12-01T15:06:36.552Z,7.20
2022-12-01T15:09:34.393Z,7.20
2022-12-01T15:12:09.416Z,7.20
2022-12-01T15:14:49.129Z,7.10
2022-12-01T15:17:31.758Z,7.10
2022-12-01T15:19:59.382Z,7.10
2022-12-01T15:22:31.429Z,7.00
2022-12-01T15:25:15.750Z,7.00
2022-12-01T15:27:44.031Z,6.90
2022-12-01T15:30:16.743Z,6.90
2022-12-01T15:32:45.945Z,6.90
2022-12-01T15:35:21.775Z,6.90
2022-12-01T15:37:50.974Z,6.90
2022-12-01T15:43:23.014Z,6.90
2022-12-01T15:45:56.415Z,6.90
2022-12-01T15:48:36.438Z,6.90
2022-12-01T15:51:27.038Z,6.90
2022-12-01T15:54:01.019Z,6.80
2022-12-01T15:56:38.283Z,6.80
2022-12-01T15:59:15.712Z,6.80
2022-12-01T16:01:45.388Z,6.80
2022-12-01T16:04:20.436Z,6.80
2022-12-01T16:06:58.199Z,6.70
2022-12-01T16:09:37.632Z,6.80
2022-12-01T16:12:16.463Z,6.80
2022-12-01T16:14:53.412Z,6.70
2022-12-01T16:17:23.385Z,6.70
2022-12-01T16:20:33.554Z,6.70
2022-12-01T16:23:15.521Z,6.80
2022-12-01T16:25:45.952Z,6.70
2022-12-01T16:28:30.769Z,6.80
2022-12-01T16:30:58.222Z,6.70
2022-12-01T16:33:28.499Z,6.70
2022-12-01T16:35:58.911Z,6.70
2022-12-01T16:38:28.863Z,6.70
2022-12-01T16:41:01.869Z,6.80
2022-12-01T16:43:29.715Z,6.70
2022-12-01T16:46:04.712Z,6.70
2022-12-01T16:48:32.001Z,6.70
2022-12-01T16:51:05.853Z,6.70
2022-12-01T16:53:32.956Z,6.70
2022-12-01T16:56:02.466Z,6.70
2022-12-01T16:58:29.857Z,6.70
2022-12-01T17:00:57.574Z,6.70
2022-12-01T17:03:27.802Z,6.70
2022-12-01T17:05:55.459Z,6.70
2022-12-01T17:08:22.775Z,6.70
2022-12-01T17:10:51.702Z,6.70
2022-12-01T17:13:24.801Z,6.70
2022-12-01T17:15:54.806Z,6.70
2022-12-01T17:18:25.068Z,6.60
2022-12-01T17:21:09.284Z,6.60
2022-12-01T17:23:41.228Z,6.70
2022-12-01T17:26:15.589Z,6.70
2022-12-01T17:28:42.686Z,6.70
2022-12-01T17:31:11.665Z,6.70
2022-12-01T17:33:39.681Z,6.70
2022-12-01T17:36:11.518Z,6.60
2022-12-01T17:38:41.818Z,6.70
2022-12-01T17:41:13.665Z,6.60
2022-12-01T17:43:41.534Z,6.60
2022-12-01T17:46:12.204Z,6.60
2022-12-01T17:48:46.604Z,6.60
2022-12-01T17:51:15.444Z,6.60
2022-12-01T17:53:42.719Z,6.60
2022-12-01T17:56:13.146Z,6.70
2022-12-01T17:58:41.096Z,6.60
2022-12-01T18:01:16.294Z,6.60
2022-12-01T18:03:43.940Z,6.60
2022-12-01T18:06:11.687Z,6.60
2022-12-01T18:08:39.806Z,6.60
2022-12-01T18:11:10.367Z,6.60
2022-12-01T18:13:46.952Z,6.60
2022-12-01T18:16:21.741Z,6.60
2022-12-01T18:18:49.681Z,6.50
2022-12-01T18:21:20.245Z,6.60
2022-12-01T18:23:56.733Z,6.60
2022-12-01T18:26:26.400Z,6.50
2022-12-01T18:29:04.682Z,6.60
2022-12-01T18:31:32.287Z,6.60
2022-12-01T18:34:05.108Z,6.50
2022-12-01T18:36:35.577Z,6.50
2022-12-01T18:39:04.783Z,6.50
2022-12-01T18:41:32.149Z,6.50
2022-12-01T18:43:59.281Z,6.50
2022-12-01T18:46:26.490Z,6.50
2022-12-01T18:49:00.911Z,6.50
2022-12-01T18:51:30.067Z,6.50
2022-12-01T18:53:59.893Z,6.40
2022-12-01T18:56:27.570Z,6.40
2022-12-01T18:59:04.921Z,6.40
2022-12-01T19:01:41.263Z,6.40
2022-12-01T19:04:10.172Z,6.30
2022-12-01T19:06:41.236Z,6.30
2022-12-01T19:09:10.611Z,6.30
2022-12-01T19:11:40.994Z,6.30
2022-12-01T19:14:17.346Z,6.30
2022-12-01T19:16:46.226Z,6.40
2022-12-01T19:19:13.648Z,6.30
2022-12-01T19:21:40.853Z,6.40
2022-12-01T19:24:09.344Z,6.40
2022-12-01T19:26:36.366Z,6.40
2022-12-01T19:29:04.294Z,6.30
2022-12-01T19:31:31.653Z,6.30
2022-12-01T19:33:58.883Z,6.30
2022-12-01T19:36:28.107Z,6.30
2022-12-01T19:38:58.193Z,6.30
2022-12-01T19:41:26.370Z,6.30
2022-12-01T19:43:54.181Z,6.30
2022-12-01T19:46:27.214Z,6.30
2022-12-01T19:49:00.738Z,6.30
2022-12-01T19:51:37.640Z,6.30
2022-12-01T19:54:21.119Z,6.30
2022-12-01T19:56:57.430Z,6.30
2022-12-01T19:59:24.896Z,6.30
2022-12-01T20:01:53.334Z,6.30
2022-12-01T20:04:20.972Z,6.20
2022-12-01T20:06:48.650Z,6.30
2022-12-01T20:09:15.966Z,6.20
2022-12-01T20:11:43.199Z,6.20
2022-12-01T20:14:10.763Z,6.20
2022-12-01T20:16:37.990Z,6.20
2022-12-01T20:19:06.635Z,6.20
2022-12-01T20:21:39.250Z,6.20
2022-12-01T20:24:08.759Z,6.20
2022-12-01T20:26:46.927Z,6.20
2022-12-01T20:29:18.192Z,6.20
2022-12-01T20:31:46.625Z,6.20
2022-12-01T20:34:23.762Z,6.20
2022-12-01T20:36:52.176Z,6.20
2022-12-01T20:39:19.785Z,6.20
2022-12-01T20:41:47.118Z,6.20
2022-12-01T20:44:16.479Z,6.20
2022-12-01T20:46:47.737Z,6.20
2022-12-01T20:49:17.441Z,6.20
2022-12-01T20:51:45.313Z,6.10
2022-12-01T20:54:30.587Z,6.10
2022-12-01T20:56:58.653Z,6.20
2022-12-01T20:59:26.270Z,6.20
2022-12-01T21:01:53.610Z,6.20
2022-12-01T21:04:20.757Z,6.20
2022-12-01T21:06:50.118Z,6.10
2022-12-01T21:09:19.287Z,6.10
2022-12-01T21:12:09.234Z,6.10
2022-12-01T21:15:36.727Z,6.10
2022-12-01T21:18:20.495Z,6.10
2022-12-01T21:20:50.262Z,6.00
2022-12-01T21:23:18.061Z,6.10
2022-12-01T21:25:45.291Z,6.00
2022-12-01T21:28:24.895Z,6.10
2022-12-01T21:31:14.804Z,6.00
2022-12-01T21:33:42.549Z,6.00
2022-12-01T21:36:20.798Z,6.00
2022-12-01T21:38:53.950Z,6.00
2022-12-01T21:41:31.007Z,6.00
2022-12-01T21:44:12.625Z,6.00
2022-12-01T21:46:42.386Z,6.00
2022-12-01T21:49:19.700Z,6.00
2022-12-01T21:51:50.401Z,6.00
2022-12-01T21:54:21.283Z,6.10
2022-12-01T21:56:49.600Z,6.00
2022-12-01T21:59:22.801Z,6.00
2022-12-01T22:01:54.979Z,6.00
2022-12-01T22:04:30.516Z,6.00
2022-12-01T22:06:58.361Z,6.00
2022-12-01T22:09:36.260Z,6.00
2022-12-01T22:12:25.940Z,6.00
2022-12-01T22:15:00.017Z,6.10
2022-12-01T22:17:28.094Z,6.00
2022-12-01T22:20:04.839Z,6.00
2022-12-01T22:22:32.914Z,6.00
2022-12-01T22:25:26.841Z,5.90
2022-12-01T22:27:54.570Z,6.00
2022-12-01T22:30:24.008Z,6.00
2022-12-01T22:33:07.305Z,6.00
2022-12-01T22:35:48.650Z,6.00
2022-12-01T22:38:33.512Z,6.00
2022-12-01T22:41:12.215Z,6.10
2022-12-01T22:43:57.119Z,6.00
2022-12-01T22:46:40.084Z,6.00
2022-12-01T22:49:20.744Z,6.00
2022-12-01T22:52:28.358Z,6.00
2022-12-01T22:54:55.465Z,6.00
2022-12-01T22:57:37.355Z,6.00
2022-12-01T23:00:21.474Z,6.00
2022-12-01T23:02:49.778Z,6.00
2022-12-01T23:05:29.489Z,6.00
2022-12-01T23:07:57.530Z,6.00
2022-12-01T23:10:33.702Z,6.00
2022-12-01T23:13:13.529Z,6.00
2022-12-01T23:15:45.559Z,5.90
2022-12-01T23:18:41.822Z,6.00
2022-12-01T23:21:09.370Z,6.00
2022-12-01T23:23:40.032Z,6.00
2022-12-01T23:26:09.129Z,5.90
2022-12-01T23:28:38.959Z,5.90
2022-12-01T23:31:06.514Z,5.90
2022-12-01T23:33:35.063Z,5.90
2022-12-01T23:36:24.608Z,5.90
2022-12-01T23:38:57.637Z,5.90
2022-12-01T23:41:39.619Z,5.90
2022-12-01T23:44:35.724Z,5.90
2022-12-01T23:47:03.375Z,5.90
2022-12-01T23:49:34.780Z,5.90
2022-12-01T23:52:05.942Z,5.80
2022-12-01T23:54:34.923Z,5.80
2022-12-01T23:57:21.884Z,5.80
2022-12-01T23:59:55.204Z,5.80
